Macgregor, Canada
Current Conditions -  °F | °C
As of 4:00 AM on Thursday 27 Nov 2014 (Local Time) from CYBR Reporting Station
Clear Clear  
Wind Chill: -34°   Ceiling: Unl
Heat Index: -17°   Visibility: 15mi
Dew Point: -22°   Wind: 8mph
Humidity: 76%   Direction: 240°WSW
Pressure: 30.42"   Gusts: NA
Location:  49.97°N, 98.77°W
Report Text: CYBR 271000Z 24007KT 15SM SKC M27/M30 A3042 RMK SLP353
Loading
Personal Weather Stations






























Interactive Weather Map New forecast layout! Learn more

10-Day Weather Forecast

Advertisements
Track Severe Weather on mobile